Time;durP1;ratioP1;P1;durP2;ratioP2;P2;SDS_P1;SDS_P2;PMS_P1;PMS_P2;Temp;Humidity;BMP_temperature;BMP_pressure;BME280_temperature;BME280_humidity;BME280_pressure;Samples;Min_cycle;Max_cycle;Signal;HPM_P1;HPM_P2
2022/07/14 00:02:44;;;;;;;0.00;0.00;;;;;;;14.41;100.00;102126.22;10411207;28;20547;-79
2022/07/14 00:07:46;;;;;;;0.00;0.00;;;;;;;14.66;100.00;102121.81;10425619;28;20053;-79
2022/07/14 00:12:48;;;;;;;0.00;0.00;;;;;;;14.47;100.00;102121.25;10408092;28;20079;-79
2022/07/14 00:17:50;;;;;;;0.55;0.25;;;;;;;14.38;100.00;102121.84;10408423;28;20045;-79
2022/07/14 00:22:53;;;;;;;0.20;0.00;;;;;;;14.47;100.00;102103.09;10408952;28;20037;-79
2022/07/14 00:27:55;;;;;;;2.95;1.30;;;;;;;14.43;100.00;102109.00;10408127;28;20041;-79
2022/07/14 00:32:57;;;;;;;0.13;0.13;;;;;;;14.41;100.00;102089.94;10410170;28;20045;-80
2022/07/14 00:37:59;;;;;;;0.20;0.20;;;;;;;14.06;100.00;102075.13;10407753;28;20404;-79
2022/07/14 00:43:01;;;;;;;0.00;0.00;;;;;;;13.92;100.00;102079.00;10408384;28;20073;-79
2022/07/14 00:48:03;;;;;;;0.00;0.00;;;;;;;14.14;100.00;102085.69;10408446;28;20044;-79
2022/07/14 00:53:09;;;;;;;0.00;0.00;;;;;;;14.19;100.00;102094.47;10409763;28;20045;-80
2022/07/14 00:58:11;;;;;;;0.00;0.00;;;;;;;14.15;100.00;102105.59;10407690;28;20049;-79
2022/07/14 01:03:13;;;;;;;0.00;0.00;;;;;;;13.98;100.00;102104.19;10392222;28;20590;-79
2022/07/14 01:08:15;;;;;;;0.00;0.00;;;;;;;13.78;100.00;102120.00;10395330;28;20042;-79
2022/07/14 01:13:16;;;;;;;0.20;0.15;;;;;;;14.03;100.00;102110.41;10391562;28;20046;-79
2022/07/14 01:18:19;;;;;;;0.00;0.00;;;;;;;14.14;100.00;102115.94;10407123;28;20059;-79
2022/07/14 01:23:21;;;;;;;0.03;0.03;;;;;;;14.22;100.00;102125.69;10407885;28;20757;-79
2022/07/14 01:28:24;;;;;;;0.00;0.00;;;;;;;14.08;100.00;102143.41;10407109;28;20065;-79
2022/07/14 01:33:25;;;;;;;0.25;0.17;;;;;;;14.18;100.00;102139.41;10407173;28;20449;-79
2022/07/14 01:38:27;;;;;;;0.00;0.00;;;;;;;14.23;100.00;102137.81;10405780;28;20041;-78
2022/07/14 01:43:29;;;;;;;0.30;0.28;;;;;;;14.11;100.00;102134.88;10406949;28;20128;-79
2022/07/14 01:48:31;;;;;;;0.17;0.17;;;;;;;14.10;100.00;102130.50;10390535;28;20049;-79
2022/07/14 01:53:33;;;;;;;0.00;0.00;;;;;;;14.21;100.00;102123.94;10391005;28;20553;-78
2022/07/14 01:58:35;;;;;;;0.00;0.00;;;;;;;14.45;100.00;102112.53;10410716;28;20054;-78
2022/07/14 02:03:37;;;;;;;0.00;0.00;;;;;;;14.56;100.00;102105.94;10414165;28;20045;-78
2022/07/14 02:08:39;;;;;;;0.52;0.38;;;;;;;14.41;100.00;102115.84;10413321;28;20045;-78
2022/07/14 02:13:41;;;;;;;0.25;0.10;;;;;;;14.33;100.00;102122.56;10397642;28;20045;-78
2022/07/14 02:18:44;;;;;;;0.20;0.10;;;;;;;14.23;100.00;102124.88;10412960;28;20045;-79
2022/07/14 02:23:45;;;;;;;0.08;0.08;;;;;;;13.95;100.00;102124.03;10413341;28;20080;-79
2022/07/14 02:28:47;;;;;;;0.13;0.13;;;;;;;13.45;100.00;102123.22;10396924;28;20045;-78
2022/07/14 02:33:49;;;;;;;0.30;0.10;;;;;;;13.68;100.00;102128.28;10412693;28;20520;-78
2022/07/14 02:38:51;;;;;;;0.00;0.00;;;;;;;13.87;100.00;102132.34;10402821;28;20041;-78
2022/07/14 02:43:52;;;;;;;0.00;0.00;;;;;;;13.91;100.00;102127.31;10429352;28;20136;-78
2022/07/14 02:48:54;;;;;;;0.28;0.17;;;;;;;13.94;100.00;102124.84;10411357;28;20046;-78
2022/07/14 02:53:56;;;;;;;0.00;0.00;;;;;;;14.00;100.00;102118.09;10412103;28;20448;-79
2022/07/14 02:58:59;;;;;;;0.30;0.30;;;;;;;13.93;100.00;102128.25;10408717;28;20463;-78
2022/07/14 03:04:02;;;;;;;1.08;0.68;;;;;;;13.87;100.00;102115.13;10411435;28;20115;-78
2022/07/14 03:09:04;;;;;;;0.00;0.00;;;;;;;13.74;100.00;102113.84;10413168;28;20087;-78
2022/07/14 03:14:06;;;;;;;0.25;0.20;;;;;;;13.72;100.00;102112.03;10395203;28;20045;-78
2022/07/14 03:19:09;;;;;;;0.45;0.22;;;;;;;13.59;100.00;102101.25;10427798;28;20038;-78
2022/07/14 03:24:11;;;;;;;0.20;0.20;;;;;;;13.31;100.00;102099.44;10394981;28;20049;-78
2022/07/14 03:29:13;;;;;;;4.13;0.35;;;;;;;12.98;100.00;102093.19;10398629;28;20489;-79
2022/07/14 03:34:16;;;;;;;0.03;0.03;;;;;;;12.84;100.00;102096.97;10413811;28;20088;-79
2022/07/14 03:39:20;;;;;;;0.03;0.03;;;;;;;12.61;100.00;102103.88;10410409;28;20046;-78
2022/07/14 03:44:24;;;;;;;0.00;0.00;;;;;;;12.91;100.00;102106.72;10410793;28;20132;-78
2022/07/14 03:49:26;;;;;;;2.42;0.10;;;;;;;12.81;100.00;102108.06;10410572;28;20049;-78
2022/07/14 03:54:31;;;;;;;0.00;0.00;;;;;;;12.65;100.00;102116.13;10410293;28;20057;-78
2022/07/14 03:59:39;;;;;;;0.57;0.30;;;;;;;12.55;100.00;102112.28;10409848;28;20041;-78
2022/07/14 04:04:43;;;;;;;0.43;0.10;;;;;;;12.81;100.00;102097.72;10409947;28;20099;-80
2022/07/14 04:09:45;;;;;;;0.00;0.00;;;;;;;12.66;100.00;102098.06;10393099;28;20650;-79
2022/07/14 04:14:48;;;;;;;0.10;0.10;;;;;;;12.38;100.00;102097.06;10409393;28;20041;-80
2022/07/14 04:19:50;;;;;;;0.40;0.40;;;;;;;12.62;100.00;102103.94;10409051;28;20037;-80
2022/07/14 04:24:53;;;;;;;0.05;0.05;;;;;;;12.52;100.00;102101.84;10409400;28;20405;-79
2022/07/14 04:29:54;;;;;;;0.17;0.10;;;;;;;12.64;100.00;102104.88;10408976;28;20099;-79
2022/07/14 04:34:56;;;;;;;0.50;0.20;;;;;;;12.82;100.00;102101.22;10392954;28;20057;-80
2022/07/14 04:39:58;;;;;;;0.57;0.20;;;;;;;13.04;100.00;102109.72;10401909;28;20037;-79
2022/07/14 04:45:00;;;;;;;0.17;0.17;;;;;;;13.02;100.00;102123.47;10408472;28;20045;-80
2022/07/14 04:55:24;;;;;;;0.20;0.20;;;;;;;13.28;100.00;102120.94;10408898;28;20053;-80
2022/07/14 05:00:45;;;;;;;0.00;0.00;;;;;;;13.27;100.00;102131.22;10407886;28;20045;-80
2022/07/14 05:05:48;;;;;;;0.15;0.15;;;;;;;13.49;100.00;102109.56;10408662;28;20061;-80
2022/07/14 05:10:50;;;;;;;1.15;0.32;;;;;;;13.62;100.00;102124.69;10407425;28;20068;-80
2022/07/14 05:15:51;;;;;;;0.43;0.32;;;;;;;13.88;100.00;102121.16;10408038;28;20055;-79
2022/07/14 05:20:54;;;;;;;0.32;0.13;;;;;;;14.10;100.00;102118.41;10407458;28;20037;-80
2022/07/14 05:26:03;;;;;;;0.63;0.28;;;;;;;14.31;100.00;102119.03;10408190;28;20512;-80
2022/07/14 05:31:05;;;;;;;0.75;0.20;;;;;;;14.59;100.00;102123.31;10407555;28;20238;-80
2022/07/14 05:36:13;;;;;;;0.65;0.20;;;;;;;14.50;100.00;102123.06;10415993;28;20049;-79
2022/07/14 05:41:15;;;;;;;0.20;0.13;;;;;;;14.73;100.00;102134.09;10412903;28;20037;-80
2022/07/14 05:46:19;;;;;;;0.88;0.30;;;;;;;14.86;100.00;102141.41;10415302;28;20049;-80
2022/07/14 05:51:24;;;;;;;0.15;0.10;;;;;;;14.62;100.00;102122.53;10406285;28;20091;-80
2022/07/14 05:56:30;;;;;;;1.40;0.68;;;;;;;15.06;100.00;102134.16;10399017;28;20116;-80
2022/07/14 06:01:37;;;;;;;0.77;0.63;;;;;;;15.33;100.00;102140.03;10415781;28;20524;-80
2022/07/14 06:06:45;;;;;;;0.65;0.47;;;;;;;15.38;100.00;102135.84;10413306;28;20053;-80
2022/07/14 06:11:48;;;;;;;0.10;0.10;;;;;;;15.48;100.00;102127.47;10413780;28;20385;-80
2022/07/14 06:16:50;;;;;;;0.52;0.30;;;;;;;15.77;100.00;102116.91;10413889;28;20053;-80
2022/07/14 06:21:51;;;;;;;0.00;0.00;;;;;;;15.72;100.00;102102.94;10428139;28;20406;-80
2022/07/14 06:26:53;;;;;;;1.20;0.65;;;;;;;15.96;100.00;102106.97;10388496;28;20445;-80
2022/07/14 06:32:05;;;;;;;1.48;1.38;;;;;;;16.02;100.00;102104.50;10429362;28;20088;-80
2022/07/14 06:37:07;;;;;;;0.30;0.20;;;;;;;16.04;100.00;102102.84;10413121;28;20532;-80
2022/07/14 06:42:09;;;;;;;0.00;0.00;;;;;;;16.34;100.00;102109.56;10403932;28;20041;-80
2022/07/14 06:47:17;;;;;;;0.28;0.10;;;;;;;16.47;100.00;102098.56;10406287;28;20171;-80
2022/07/14 06:52:19;;;;;;;0.22;0.22;;;;;;;16.29;100.00;102098.16;10410037;28;20073;-79
2022/07/14 06:57:24;;;;;;;0.00;0.00;;;;;;;16.81;100.00;102099.22;10412385;28;20099;-79
2022/07/14 07:02:26;;;;;;;0.20;0.20;;;;;;;17.23;100.00;102092.19;10409513;28;20057;-79
2022/07/14 07:07:28;;;;;;;0.00;0.00;;;;;;;16.91;100.00;102088.97;10398926;28;20081;-79
2022/07/14 07:12:30;;;;;;;0.00;0.00;;;;;;;18.01;100.00;102068.22;10380366;28;20049;-79
2022/07/14 07:17:32;;;;;;;0.25;0.25;;;;;;;18.32;100.00;102063.41;10409811;28;20114;-79
2022/07/14 07:22:33;;;;;;;0.17;0.17;;;;;;;18.14;98.09;102052.72;10405831;28;20052;-79
2022/07/14 07:27:35;;;;;;;0.52;0.43;;;;;;;18.21;100.00;102054.56;10394590;28;20452;-79
2022/07/14 07:32:36;;;;;;;0.88;0.10;;;;;;;19.40;100.00;102032.28;10412191;28;20054;-79
2022/07/14 07:37:38;;;;;;;0.10;0.00;;;;;;;19.01;93.63;102045.03;10411605;28;20112;-79
2022/07/14 07:42:40;;;;;;;0.00;0.00;;;;;;;19.46;91.68;102031.44;10406973;28;21355;-79
2022/07/14 07:47:42;;;;;;;0.68;0.38;;;;;;;19.75;92.81;102028.13;10403230;28;20401;-79
2022/07/14 07:52:44;;;;;;;2.95;0.22;;;;;;;20.18;85.56;102023.13;10393733;28;20049;-79
2022/07/14 07:57:45;;;;;;;0.10;0.05;;;;;;;20.21;85.50;102022.25;10390265;28;20065;-79
2022/07/14 08:02:49;;;;;;;0.00;0.00;;;;;;;19.68;84.75;102022.00;10409328;28;20092;-79
2022/07/14 08:07:52;;;;;;;0.10;0.00;;;;;;;20.44;80.08;102015.38;10409931;28;20385;-79
2022/07/14 08:12:54;;;;;;;0.10;0.10;;;;;;;20.28;82.46;102016.19;10410488;28;20041;-79
2022/07/14 08:17:56;;;;;;;1.40;0.60;;;;;;;20.67;78.18;102005.78;10409210;28;20044;-79
2022/07/14 08:22:58;;;;;;;0.00;0.00;;;;;;;21.30;77.67;101997.09;10406408;28;20045;-79
2022/07/14 08:28:00;;;;;;;0.00;0.00;;;;;;;21.44;74.59;101990.09;10404284;28;20033;-79
2022/07/14 08:33:02;;;;;;;0.43;0.20;;;;;;;20.91;72.10;101994.53;10405767;28;20052;-79
2022/07/14 08:38:04;;;;;;;0.03;0.03;;;;;;;21.57;71.54;101990.97;10407782;28;20033;-79
2022/07/14 08:43:13;;;;;;;0.10;0.10;;;;;;;21.94;73.70;101974.22;10408323;28;20079;-79
2022/07/14 08:48:16;;;;;;;3.83;0.52;;;;;;;21.69;69.18;101969.94;10407764;28;20057;-79
2022/07/14 08:53:18;;;;;;;0.00;0.00;;;;;;;21.67;66.17;101976.94;10407495;28;20506;-79
2022/07/14 08:58:21;;;;;;;1.95;0.30;;;;;;;22.77;71.52;101968.47;10404563;28;20038;-79
2022/07/14 09:03:23;;;;;;;0.00;0.00;;;;;;;22.16;64.38;101978.47;10403127;28;20046;-79
2022/07/14 09:08:56;;;;;;;0.00;0.00;;;;;;;22.35;60.11;101966.13;10403917;28;20049;-79
2022/07/14 09:14:09;;;;;;;0.25;0.00;;;;;;;22.30;63.32;101967.03;10405176;28;20412;-79
2022/07/14 09:19:13;;;;;;;0.00;0.00;;;;;;;22.90;70.03;101948.22;10408519;28;20377;-80
2022/07/14 09:24:15;;;;;;;0.00;0.00;;;;;;;23.59;63.48;101949.31;10410818;28;20408;-79
2022/07/14 09:29:27;;;;;;;0.00;0.00;;;;;;;23.56;60.44;101948.47;10417055;28;20063;-80
2022/07/14 09:34:36;;;;;;;0.13;0.03;;;;;;;22.88;65.16;101934.22;10414206;28;20144;-80
2022/07/14 09:39:56;;;;;;;0.38;0.10;;;;;;;23.65;64.24;101948.34;10414687;28;20056;-80
2022/07/14 09:45:08;;;;;;;0.00;0.00;;;;;;;23.48;59.09;101939.78;10414667;28;20060;-79
2022/07/14 09:50:11;;;;;;;0.00;0.00;;;;;;;23.12;52.18;101948.03;10412250;28;20568;-79
2022/07/14 09:55:28;;;;;;;0.32;0.15;;;;;;;23.32;51.92;101949.59;10413748;28;20053;-80
2022/07/14 10:00:30;;;;;;;0.05;0.03;;;;;;;24.19;55.16;101936.25;10404031;28;20042;-79
2022/07/14 10:05:33;;;;;;;0.45;0.30;;;;;;;24.06;54.48;101944.34;10406991;28;20136;-79
2022/07/14 10:10:35;;;;;;;0.00;0.00;;;;;;;23.72;56.06;101936.84;10398016;28;20061;-80
2022/07/14 10:15:38;;;;;;;0.10;0.10;;;;;;;23.57;54.28;101940.53;10391239;28;20368;-80
2022/07/14 10:20:40;;;;;;;0.00;0.00;;;;;;;23.79;54.20;101949.94;10398675;28;20060;-80
2022/07/14 10:25:42;;;;;;;0.00;0.00;;;;;;;24.64;53.21;101936.41;10389928;28;20046;-79
2022/07/14 10:31:20;;;;;;;0.15;0.10;;;;;;;24.33;56.67;101944.81;10409231;28;20048;-80
2022/07/14 10:36:42;;;;;;;0.00;0.00;;;;;;;24.11;52.15;101953.91;10408465;28;20057;-80
2022/07/14 10:42:17;;;;;;;0.08;0.08;;;;;;;24.59;52.59;101948.81;10429736;28;20047;-80
2022/07/14 10:47:20;;;;;;;0.00;0.00;;;;;;;23.71;52.58;101953.53;10414078;28;20048;-80
2022/07/14 10:52:26;;;;;;;0.47;0.47;;;;;;;24.18;54.26;101950.31;10413297;28;20049;-79
2022/07/14 10:57:28;;;;;;;0.43;0.10;;;;;;;23.11;51.66;101944.53;10408963;28;20076;-79
2022/07/14 11:02:31;;;;;;;0.05;0.03;;;;;;;23.30;52.41;101941.72;10412723;28;20041;-79
2022/07/14 11:07:52;;;;;;;0.00;0.00;;;;;;;23.92;55.07;101930.47;10395951;28;20056;-80
2022/07/14 11:13:03;;;;;;;0.10;0.10;;;;;;;24.26;52.08;101940.53;10411479;28;20049;-79
2022/07/14 11:18:17;;;;;;;0.20;0.13;;;;;;;24.15;54.34;101931.94;10413336;28;20356;-79
2022/07/14 11:23:28;;;;;;;0.85;0.57;;;;;;;24.03;49.33;101932.97;10415001;28;20038;-79
2022/07/14 11:28:49;;;;;;;0.10;0.10;;;;;;;24.01;53.81;101930.38;10411359;28;20133;-79
2022/07/14 11:39:16;;;;;;;0.00;0.00;;;;;;;23.25;51.26;101930.41;10411990;28;20037;-79
2022/07/14 11:44:36;;;;;;;0.25;0.10;;;;;;;23.36;52.90;101930.28;10415021;28;20118;-80
2022/07/14 11:49:41;;;;;;;0.00;0.00;;;;;;;23.29;54.31;101924.22;10400186;28;20516;-79
2022/07/14 11:54:43;;;;;;;0.95;0.63;;;;;;;23.20;52.36;101924.31;10398235;28;20508;-79
2022/07/14 11:59:45;;;;;;;0.00;0.00;;;;;;;23.36;52.45;101925.03;10411783;28;20049;-79
2022/07/14 12:04:56;;;;;;;0.00;0.00;;;;;;;22.78;49.49;101925.56;10413119;28;20060;-79
2022/07/14 12:09:58;;;;;;;0.08;0.08;;;;;;;23.19;55.39;101938.34;10410646;28;20041;-79
2022/07/14 12:15:00;;;;;;;0.10;0.10;;;;;;;23.16;51.89;101935.72;10411490;28;20045;-79
2022/07/14 12:20:02;;;;;;;0.00;0.00;;;;;;;23.12;54.96;101929.63;10411028;28;20125;-80
2022/07/14 12:25:04;;;;;;;0.20;0.10;;;;;;;23.16;47.85;101933.94;10399576;28;20046;-79
2022/07/14 12:30:06;;;;;;;0.05;0.03;;;;;;;23.23;53.48;101919.03;10423748;28;20038;-80
2022/07/14 12:35:09;;;;;;;0.13;0.13;;;;;;;23.61;51.06;101925.59;10408876;28;20596;-80
2022/07/14 12:40:12;;;;;;;0.00;0.00;;;;;;;22.97;49.16;101928.03;10409614;28;20046;-79
2022/07/14 12:45:14;;;;;;;0.00;0.00;;;;;;;22.81;48.99;101932.53;10408970;28;20049;-79
2022/07/14 12:50:20;;;;;;;0.00;0.00;;;;;;;23.40;53.62;101929.34;10400472;28;20049;-79
2022/07/14 12:55:44;;;;;;;0.00;0.00;;;;;;;23.47;51.17;101935.41;10361869;28;20041;-79
2022/07/14 13:00:46;;;;;;;0.00;0.00;;;;;;;23.44;46.74;101937.19;10407221;28;20400;-79
2022/07/14 13:05:57;;;;;;;0.55;0.20;;;;;;;23.25;46.33;101939.16;10408999;28;20396;-79
2022/07/14 13:11:00;;;;;;;0.00;0.00;;;;;;;23.09;46.53;101943.66;10404553;28;20041;-79
2022/07/14 13:16:21;;;;;;;0.00;0.00;;;;;;;23.48;49.60;101926.66;10399763;28;20045;-79
2022/07/14 13:21:55;;;;;;;0.90;0.25;;;;;;;24.18;48.25;101918.72;10400283;28;20483;-80
2022/07/14 13:27:08;;;;;;;0.00;0.00;;;;;;;23.82;49.92;101928.84;10394298;28;20077;-79
2022/07/14 13:32:18;;;;;;;0.00;0.00;;;;;;;24.37;50.05;101920.19;10399765;28;20068;-79
2022/07/14 13:37:22;;;;;;;0.03;0.03;;;;;;;24.28;46.54;101922.06;10380404;28;20109;-80
2022/07/14 13:42:24;;;;;;;0.13;0.10;;;;;;;23.86;43.03;101930.56;10400718;28;20536;-79
2022/07/14 13:47:26;;;;;;;0.00;0.00;;;;;;;24.21;46.74;101926.56;10405856;28;20088;-80
2022/07/14 13:52:28;;;;;;;0.00;0.00;;;;;;;23.48;49.21;101931.91;10405955;28;20543;-80
2022/07/14 13:57:29;;;;;;;0.20;0.20;;;;;;;23.47;51.50;101922.28;10412901;28;20049;-79
2022/07/14 14:03:22;;;;;;;0.10;0.10;;;;;;;23.97;46.31;101927.81;10408848;28;20034;-79
2022/07/14 14:07:53;;;;;;;0.10;0.10;;;;;;;24.16;45.73;101917.88;10410569;28;20049;-79
2022/07/14 14:12:55;;;;;;;0.00;0.00;;;;;;;23.73;46.06;101935.09;10412454;28;20045;-79
2022/07/14 14:17:58;;;;;;;0.00;0.00;;;;;;;23.94;51.80;101923.44;10413424;28;20555;-79
2022/07/14 14:23:00;;;;;;;0.00;0.00;;;;;;;23.02;45.43;101936.72;10413071;28;20461;-79
2022/07/14 14:28:06;;;;;;;0.38;0.10;;;;;;;22.91;46.81;101941.19;10411330;28;20049;-79
2022/07/14 14:33:08;;;;;;;0.00;0.00;;;;;;;22.72;47.22;101941.38;10412020;28;20049;-79
2022/07/14 14:38:10;;;;;;;0.10;0.08;;;;;;;22.92;46.35;101935.97;10412179;28;20042;-78
2022/07/14 14:43:12;;;;;;;0.00;0.00;;;;;;;23.32;52.77;101934.72;10412839;28;20053;-78
2022/07/14 14:48:17;;;;;;;0.00;0.00;;;;;;;22.97;53.61;101938.53;10412079;28;20054;-79
2022/07/14 14:53:19;;;;;;;0.32;0.10;;;;;;;22.61;52.83;101940.59;10410507;28;20599;-79
2022/07/14 14:58:21;;;;;;;0.00;0.00;;;;;;;22.31;51.90;101939.88;10412316;28;20038;-78
2022/07/14 15:03:23;;;;;;;0.00;0.00;;;;;;;22.44;51.90;101944.22;10426579;28;20068;-79
2022/07/14 15:08:25;;;;;;;0.00;0.00;;;;;;;22.72;51.37;101936.13;10416380;28;20042;-79
2022/07/14 15:13:27;;;;;;;0.00;0.00;;;;;;;22.66;54.24;101944.06;10410298;28;20042;-79
2022/07/14 15:18:29;;;;;;;0.10;0.00;;;;;;;22.34;47.91;101948.63;10430744;28;20050;-79
2022/07/14 15:23:30;;;;;;;0.10;0.10;;;;;;;22.59;52.37;101958.13;10433287;28;20485;-79
2022/07/14 15:28:32;;;;;;;0.35;0.20;;;;;;;22.86;50.42;101946.50;10428991;28;20049;-79
2022/07/14 15:33:34;;;;;;;0.00;0.00;;;;;;;22.11;51.92;101955.78;10423455;28;20064;-78
2022/07/14 15:41:14;;;;;;;0.00;0.00;;;;;;;21.92;50.99;101949.75;10439041;28;20117;-79
2022/07/14 15:43:59;;;;;;;0.15;0.00;;;;;;;22.44;58.01;101948.59;10420068;28;20523;-79
2022/07/14 15:49:00;;;;;;;0.20;0.13;;;;;;;22.37;54.72;101942.50;10420295;28;20076;-80
2022/07/14 15:54:02;;;;;;;0.10;0.10;;;;;;;22.21;55.37;101952.22;10425796;28;20568;-80
2022/07/14 15:59:04;;;;;;;0.00;0.00;;;;;;;21.93;56.18;101941.88;10431296;28;20552;-79
2022/07/14 16:04:06;;;;;;;0.10;0.10;;;;;;;22.03;54.52;101940.06;10411329;28;20520;-79
2022/07/14 16:09:08;;;;;;;0.28;0.20;;;;;;;21.49;52.97;101940.28;10430974;28;20097;-79
2022/07/14 16:14:12;;;;;;;0.20;0.20;;;;;;;21.58;55.49;101939.38;10433408;28;20477;-78
2022/07/14 16:19:14;;;;;;;0.00;0.00;;;;;;;21.44;55.19;101948.16;10433321;28;20051;-78
2022/07/14 16:24:16;;;;;;;0.00;0.00;;;;;;;21.42;55.17;101939.41;10433315;28;20053;-79
2022/07/14 16:29:17;;;;;;;1.00;0.40;;;;;;;21.31;53.16;101944.69;10422808;28;20049;-78
2022/07/14 16:34:19;;;;;;;0.00;0.00;;;;;;;21.34;57.57;101935.94;10431518;28;20491;-78
2022/07/14 16:39:22;;;;;;;0.00;0.00;;;;;;;21.27;55.65;101944.69;10428907;28;20132;-78
2022/07/14 16:44:26;;;;;;;0.00;0.00;;;;;;;21.38;55.31;101935.06;10401155;28;20420;-78
2022/07/14 16:49:28;;;;;;;0.35;0.20;;;;;;;21.63;57.27;101927.16;10395709;28;20077;-78
2022/07/14 16:54:29;;;;;;;0.20;0.10;;;;;;;21.13;55.66;101932.47;10397331;28;20053;-78
2022/07/14 16:59:34;;;;;;;0.25;0.15;;;;;;;21.50;54.49;101927.16;10392696;28;20041;-78
2022/07/14 17:04:36;;;;;;;0.00;0.00;;;;;;;21.66;57.65;101933.25;10390167;28;20042;-78
2022/07/14 17:09:38;;;;;;;0.20;0.10;;;;;;;21.95;62.31;101926.13;10403028;28;20045;-78
2022/07/14 17:14:40;;;;;;;0.00;0.00;;;;;;;21.54;62.57;101933.25;10407959;28;20060;-78
2022/07/14 17:19:41;;;;;;;0.00;0.00;;;;;;;21.27;62.82;101931.56;10406963;28;20041;-78
2022/07/14 17:24:44;;;;;;;0.00;0.00;;;;;;;21.20;64.33;101934.22;10406850;28;20057;-79
2022/07/14 17:29:45;;;;;;;0.10;0.10;;;;;;;21.18;66.72;101936.00;10420094;28;20140;-78
2022/07/14 17:34:47;;;;;;;0.00;0.00;;;;;;;20.85;63.84;101931.66;10415578;28;20064;-78
2022/07/14 17:39:49;;;;;;;0.00;0.00;;;;;;;20.84;65.53;101941.25;10407748;28;20045;-78
2022/07/14 17:44:50;;;;;;;0.00;0.00;;;;;;;20.77;62.70;101929.91;10421349;28;20397;-78
2022/07/14 17:49:52;;;;;;;0.20;0.10;;;;;;;20.43;63.75;101942.09;10414990;28;20037;-79
2022/07/14 17:54:54;;;;;;;0.10;0.10;;;;;;;20.59;65.12;101941.22;10413706;28;20053;-78
2022/07/14 17:59:56;;;;;;;0.00;0.00;;;;;;;20.55;64.36;101949.94;10425843;28;20064;-79
2022/07/14 18:04:58;;;;;;;0.90;0.43;;;;;;;20.34;64.06;101947.28;10408399;28;20049;-78
2022/07/14 18:09:59;;;;;;;0.10;0.10;;;;;;;20.25;64.70;101943.78;10407186;28;20060;-78
2022/07/14 18:15:03;;;;;;;0.20;0.10;;;;;;;19.90;64.84;101957.66;10395191;28;20072;-78
2022/07/14 18:20:09;;;;;;;0.00;0.00;;;;;;;19.95;66.15;101963.75;10407135;28;20038;-78
2022/07/14 18:25:13;;;;;;;0.00;0.00;;;;;;;19.77;65.19;101963.66;10388279;28;20057;-78
2022/07/14 18:30:15;;;;;;;0.00;0.00;;;;;;;19.65;67.63;101973.19;10407441;28;20076;-78
2022/07/14 18:35:16;;;;;;;0.00;0.00;;;;;;;19.46;70.97;101973.94;10412250;28;20049;-78
2022/07/14 18:40:18;;;;;;;0.30;0.08;;;;;;;19.32;73.33;101977.31;10388755;28;20103;-79
2022/07/14 18:50:41;;;;;;;0.20;0.00;;;;;;;19.13;79.53;101993.75;10401109;28;20052;-79
2022/07/14 18:55:43;;;;;;;0.00;0.00;;;;;;;19.08;80.66;101998.06;10398707;28;20050;-78
2022/07/14 19:00:45;;;;;;;0.10;0.00;;;;;;;18.84;83.14;102012.63;10385790;28;20038;-78
2022/07/14 19:05:47;;;;;;;0.00;0.00;;;;;;;18.65;84.44;102017.66;10405551;28;20041;-78
2022/07/14 19:10:49;;;;;;;0.52;0.20;;;;;;;18.58;85.02;102022.81;10409934;28;20120;-78
2022/07/14 19:15:52;;;;;;;0.20;0.10;;;;;;;18.49;87.32;102028.81;10410193;28;20049;-79
2022/07/14 19:20:54;;;;;;;0.20;0.20;;;;;;;18.22;89.74;102030.22;10409273;28;20045;-78
2022/07/14 19:25:56;;;;;;;0.00;0.00;;;;;;;17.85;90.11;102037.53;10408179;28;20078;-79
2022/07/14 19:30:57;;;;;;;0.38;0.30;;;;;;;17.80;90.16;102041.81;10401677;28;20045;-79
2022/07/14 19:36:00;;;;;;;0.00;0.00;;;;;;;17.86;85.16;102044.50;10400337;28;20052;-78
2022/07/14 19:41:01;;;;;;;0.00;0.00;;;;;;;17.64;86.07;102041.59;10402069;28;20042;-79
2022/07/14 19:46:03;;;;;;;0.10;0.10;;;;;;;17.37;87.50;102058.56;10407647;28;20152;-79
2022/07/14 19:51:08;;;;;;;0.00;0.00;;;;;;;17.16;88.98;102058.22;10406927;28;20049;-79
2022/07/14 19:56:09;;;;;;;0.00;0.00;;;;;;;17.04;90.37;102064.94;10408620;28;20055;-78
2022/07/14 20:01:13;;;;;;;0.10;0.05;;;;;;;16.76;90.75;102068.72;10406937;28;20115;-78
2022/07/14 20:06:19;;;;;;;0.10;0.10;;;;;;;16.88;89.66;102078.50;10406811;28;20397;-78
2022/07/14 20:11:21;;;;;;;0.00;0.00;;;;;;;16.67;92.06;102079.84;10406637;28;20053;-79
2022/07/14 20:16:23;;;;;;;0.00;0.00;;;;;;;16.48;94.70;102076.91;10406098;28;20045;-78
2022/07/14 20:21:26;;;;;;;0.00;0.00;;;;;;;16.29;96.95;102090.34;10401685;28;20948;-79
2022/07/14 20:26:27;;;;;;;0.00;0.00;;;;;;;16.13;98.88;102087.41;10399511;28;20156;-78
2022/07/14 20:36:49;;;;;;;0.00;0.00;;;;;;;16.21;100.00;102094.50;10409557;28;20045;-78
2022/07/14 20:41:51;;;;;;;0.00;0.00;;;;;;;16.09;100.00;102101.22;10390421;28;20527;-79
2022/07/14 20:52:14;;;;;;;;;;;;;;;15.66;100.00;102116.63;10408597;28;20037;-78
2022/07/14 20:57:16;;;;;;;0.43;0.20;;;;;;;15.66;100.00;102120.97;10400875;28;19929;-78
2022/07/14 21:02:18;;;;;;;0.10;0.10;;;;;;;15.38;100.00;102122.84;10387063;28;20072;-78
2022/07/14 21:07:20;;;;;;;0.00;0.00;;;;;;;15.23;100.00;102132.00;10430946;28;20045;-78
2022/07/14 21:12:23;;;;;;;0.45;0.45;;;;;;;15.35;100.00;102125.41;10412225;28;20445;-78
2022/07/14 21:17:26;;;;;;;0.35;0.20;;;;;;;15.39;100.00;102122.91;10415877;28;20049;-78
2022/07/14 21:22:28;;;;;;;0.20;0.20;;;;;;;15.46;100.00;102123.06;10416070;28;20044;-78
2022/07/14 21:27:30;;;;;;;0.68;0.25;;;;;;;15.33;100.00;102119.28;10397585;28;20071;-78
2022/07/14 21:32:32;;;;;;;0.00;0.00;;;;;;;15.21;100.00;102128.50;10415144;28;20053;-79
2022/07/14 21:37:33;;;;;;;0.00;0.00;;;;;;;15.23;100.00;102124.22;10414917;28;20041;-79
2022/07/14 21:42:35;;;;;;;0.08;0.00;;;;;;;15.32;100.00;102131.41;10412786;28;20555;-78
2022/07/14 21:47:37;;;;;;;0.10;0.00;;;;;;;15.16;100.00;102132.69;10413868;28;20049;-78
2022/07/14 21:52:39;;;;;;;0.10;0.10;;;;;;;15.04;100.00;102138.44;10412955;28;20045;-79
2022/07/14 21:57:40;;;;;;;0.03;0.03;;;;;;;14.99;100.00;102136.56;10413011;28;20416;-78
2022/07/14 22:03:07;;;;;;;3.55;0.20;;;;;;;14.74;100.00;102141.06;10410475;28;20072;-78
2022/07/14 22:08:09;;;;;;;0.00;0.00;;;;;;;14.67;100.00;102144.31;10414341;28;20099;-78
2022/07/14 22:13:10;;;;;;;0.10;0.00;;;;;;;14.54;100.00;102138.75;10411827;28;20112;-78
2022/07/14 22:18:12;;;;;;;0.20;0.20;;;;;;;14.42;100.00;102148.72;10412260;28;20045;-79
2022/07/14 22:23:31;;;;;;;0.17;0.10;;;;;;;14.34;100.00;102148.53;10402301;28;20130;-79
2022/07/14 22:28:33;;;;;;;0.80;0.20;;;;;;;14.32;100.00;102152.78;10407506;28;20048;-79
2022/07/14 22:33:36;;;;;;;0.20;0.10;;;;;;;14.18;100.00;102154.97;10399464;28;20083;-78
2022/07/14 22:38:38;;;;;;;0.10;0.10;;;;;;;13.93;100.00;102158.44;10400928;28;20045;-78
2022/07/14 22:43:39;;;;;;;0.00;0.00;;;;;;;13.87;100.00;102166.03;10406637;28;20067;-79
2022/07/14 22:48:41;;;;;;;0.00;0.00;;;;;;;13.72;100.00;102167.28;10415092;28;20049;-79
2022/07/14 22:53:43;;;;;;;0.00;0.00;;;;;;;13.60;100.00;102170.34;10413595;28;20484;-78
2022/07/14 22:58:44;;;;;;;0.00;0.00;;;;;;;13.39;100.00;102179.97;10412436;28;20053;-79
2022/07/14 23:03:46;;;;;;;0.52;0.20;;;;;;;13.21;100.00;102169.81;10412789;28;20053;-79
2022/07/14 23:08:48;;;;;;;0.15;0.10;;;;;;;13.15;100.00;102176.56;10413577;28;20049;-79
2022/07/14 23:13:50;;;;;;;0.57;0.50;;;;;;;13.09;100.00;102178.03;10413486;28;20397;-79
2022/07/14 23:18:51;;;;;;;0.10;0.03;;;;;;;12.96;100.00;102185.34;10395278;28;20148;-79
2022/07/14 23:23:53;;;;;;;0.00;0.00;;;;;;;12.90;100.00;102182.56;10412615;28;20045;-79
2022/07/14 23:28:58;;;;;;;0.00;0.00;;;;;;;12.85;100.00;102176.31;10411260;28;20049;-79
2022/07/14 23:33:59;;;;;;;0.10;0.10;;;;;;;12.67;100.00;102182.56;10410119;28;20064;-79
2022/07/14 23:39:01;;;;;;;0.20;0.08;;;;;;;12.96;100.00;102180.19;10407448;28;20050;-79